sensor_id;sensor_type;location;lat;lon;timestamp;pressure;altitude;pressure_sealevel;temperature
13497;BMP180;6820;49.374;8.452;2023-11-18T00:00:33;101503.66;;;14.67
13497;BMP180;6820;49.374;8.452;2023-11-18T00:04:34;101502.16;;;14.70
13497;BMP180;6820;49.374;8.452;2023-11-18T00:08:36;101499.25;;;14.64
13497;BMP180;6820;49.374;8.452;2023-11-18T00:12:38;101501.81;;;14.52
13497;BMP180;6820;49.374;8.452;2023-11-18T00:16:43;101513.63;;;14.37
13497;BMP180;6820;49.374;8.452;2023-11-18T00:20:45;101512.63;;;14.35
13497;BMP180;6820;49.374;8.452;2023-11-18T00:24:47;101505.06;;;14.36
13497;BMP180;6820;49.374;8.452;2023-11-18T00:28:48;101500.56;;;14.32
13497;BMP180;6820;49.374;8.452;2023-11-18T00:32:50;101498.28;;;14.50
13497;BMP180;6820;49.374;8.452;2023-11-18T00:36:53;101500.56;;;14.45
13497;BMP180;6820;49.374;8.452;2023-11-18T00:40:55;101490.25;;;14.44
13497;BMP180;6820;49.374;8.452;2023-11-18T00:44:58;101499.47;;;14.42
13497;BMP180;6820;49.374;8.452;2023-11-18T00:48:59;101494.19;;;14.39
13497;BMP180;6820;49.374;8.452;2023-11-18T00:53:01;101490.56;;;14.35
13497;BMP180;6820;49.374;8.452;2023-11-18T00:57:03;101505.78;;;14.34
13497;BMP180;6820;49.374;8.452;2023-11-18T01:01:05;101504.38;;;14.39
13497;BMP180;6820;49.374;8.452;2023-11-18T01:05:09;101511.16;;;14.38
13497;BMP180;6820;49.374;8.452;2023-11-18T01:09:12;101518.91;;;14.40
13497;BMP180;6820;49.374;8.452;2023-11-18T01:13:14;101524.78;;;14.39
13497;BMP180;6820;49.374;8.452;2023-11-18T01:17:15;101515.38;;;14.38
13497;BMP180;6820;49.374;8.452;2023-11-18T01:21:18;101519.28;;;14.33
13497;BMP180;6820;49.374;8.452;2023-11-18T01:25:19;101515.00;;;14.32
13497;BMP180;6820;49.374;8.452;2023-11-18T01:29:21;101510.09;;;14.35
13497;BMP180;6820;49.374;8.452;2023-11-18T01:33:23;101511.84;;;14.36
13497;BMP180;6820;49.374;8.452;2023-11-18T01:37:25;101513.00;;;14.41
13497;BMP180;6820;49.374;8.452;2023-11-18T01:41:27;101511.53;;;14.44
13497;BMP180;6820;49.374;8.452;2023-11-18T01:45:30;101509.19;;;14.47
13497;BMP180;6820;49.374;8.452;2023-11-18T01:49:32;101517.44;;;14.43
13497;BMP180;6820;49.374;8.452;2023-11-18T01:53:39;101532.34;;;14.37
13497;BMP180;6820;49.374;8.452;2023-11-18T01:57:43;101525.56;;;14.25
13497;BMP180;6820;49.374;8.452;2023-11-18T02:01:48;101519.97;;;14.18
13497;BMP180;6820;49.374;8.452;2023-11-18T02:05:51;101519.53;;;14.10
13497;BMP180;6820;49.374;8.452;2023-11-18T02:09:53;101519.69;;;14.01
13497;BMP180;6820;49.374;8.452;2023-11-18T02:13:59;101513.06;;;13.91
13497;BMP180;6820;49.374;8.452;2023-11-18T02:18:06;101515.53;;;13.90
13497;BMP180;6820;49.374;8.452;2023-11-18T02:22:11;101526.41;;;13.87
13497;BMP180;6820;49.374;8.452;2023-11-18T02:26:21;101535.06;;;13.89
13497;BMP180;6820;49.374;8.452;2023-11-18T02:30:23;101538.53;;;14.02
13497;BMP180;6820;49.374;8.452;2023-11-18T02:34:27;101544.59;;;14.04
13497;BMP180;6820;49.374;8.452;2023-11-18T02:38:31;101533.63;;;14.05
13497;BMP180;6820;49.374;8.452;2023-11-18T02:42:41;101531.66;;;14.01
13497;BMP180;6820;49.374;8.452;2023-11-18T02:46:44;101528.53;;;14.05
13497;BMP180;6820;49.374;8.452;2023-11-18T02:50:46;101518.81;;;14.00
13497;BMP180;6820;49.374;8.452;2023-11-18T02:54:48;101519.91;;;14.03
13497;BMP180;6820;49.374;8.452;2023-11-18T02:58:49;101525.00;;;14.03
13497;BMP180;6820;49.374;8.452;2023-11-18T03:02:51;101524.81;;;14.13
13497;BMP180;6820;49.374;8.452;2023-11-18T03:06:54;101520.97;;;14.20
13497;BMP180;6820;49.374;8.452;2023-11-18T03:10:56;101514.38;;;14.23
13497;BMP180;6820;49.374;8.452;2023-11-18T03:14:59;101508.41;;;14.23
13497;BMP180;6820;49.374;8.452;2023-11-18T03:19:02;101522.75;;;14.21
13497;BMP180;6820;49.374;8.452;2023-11-18T03:23:06;101510.00;;;14.21
13497;BMP180;6820;49.374;8.452;2023-11-18T03:27:10;101515.56;;;14.28
13497;BMP180;6820;49.374;8.452;2023-11-18T03:31:12;101518.22;;;14.30
13497;BMP180;6820;49.374;8.452;2023-11-18T03:35:14;101517.53;;;14.32
13497;BMP180;6820;49.374;8.452;2023-11-18T03:39:16;101505.66;;;14.32
13497;BMP180;6820;49.374;8.452;2023-11-18T03:43:18;101509.09;;;14.33
13497;BMP180;6820;49.374;8.452;2023-11-18T03:47:22;101517.34;;;14.29
13497;BMP180;6820;49.374;8.452;2023-11-18T03:51:25;101527.44;;;14.28
13497;BMP180;6820;49.374;8.452;2023-11-18T03:55:27;101530.19;;;14.31
13497;BMP180;6820;49.374;8.452;2023-11-18T03:59:28;101518.91;;;14.27
13497;BMP180;6820;49.374;8.452;2023-11-18T04:03:30;101525.69;;;14.14
13497;BMP180;6820;49.374;8.452;2023-11-18T04:07:33;101525.97;;;14.05
13497;BMP180;6820;49.374;8.452;2023-11-18T04:11:36;101521.03;;;13.96
13497;BMP180;6820;49.374;8.452;2023-11-18T04:15:37;101526.53;;;13.89
13497;BMP180;6820;49.374;8.452;2023-11-18T04:19:39;101517.91;;;13.87
13497;BMP180;6820;49.374;8.452;2023-11-18T04:23:42;101506.91;;;13.88
13497;BMP180;6820;49.374;8.452;2023-11-18T04:27:44;101494.16;;;13.88
13497;BMP180;6820;49.374;8.452;2023-11-18T04:31:47;101498.66;;;13.79
13497;BMP180;6820;49.374;8.452;2023-11-18T04:35:49;101512.28;;;13.79
13497;BMP180;6820;49.374;8.452;2023-11-18T04:39:51;101505.13;;;13.74
13497;BMP180;6820;49.374;8.452;2023-11-18T04:43:53;101509.16;;;13.70
13497;BMP180;6820;49.374;8.452;2023-11-18T04:47:57;101501.72;;;13.73
13497;BMP180;6820;49.374;8.452;2023-11-18T04:51:59;101501.78;;;13.75
13497;BMP180;6820;49.374;8.452;2023-11-18T04:56:00;101498.97;;;13.70
13497;BMP180;6820;49.374;8.452;2023-11-18T05:00:02;101495.44;;;13.69
13497;BMP180;6820;49.374;8.452;2023-11-18T05:04:12;101499.72;;;13.69
13497;BMP180;6820;49.374;8.452;2023-11-18T05:08:20;101511.78;;;13.72
13497;BMP180;6820;49.374;8.452;2023-11-18T05:12:23;101506.81;;;13.73
13497;BMP180;6820;49.374;8.452;2023-11-18T05:16:24;101506.69;;;13.72
13497;BMP180;6820;49.374;8.452;2023-11-18T05:20:26;101505.31;;;13.77
13497;BMP180;6820;49.374;8.452;2023-11-18T05:24:29;101508.75;;;13.77
13497;BMP180;6820;49.374;8.452;2023-11-18T05:28:31;101504.66;;;13.79
13497;BMP180;6820;49.374;8.452;2023-11-18T05:32:32;101499.06;;;13.85
13497;BMP180;6820;49.374;8.452;2023-11-18T05:36:35;101522.13;;;13.86
13497;BMP180;6820;49.374;8.452;2023-11-18T05:40:39;101509.06;;;13.82
13497;BMP180;6820;49.374;8.452;2023-11-18T05:44:44;101498.66;;;13.79
13497;BMP180;6820;49.374;8.452;2023-11-18T05:48:47;101489.06;;;13.75
13497;BMP180;6820;49.374;8.452;2023-11-18T05:52:50;101483.00;;;13.73
13497;BMP180;6820;49.374;8.452;2023-11-18T05:56:53;101487.28;;;13.61
13497;BMP180;6820;49.374;8.452;2023-11-18T06:00:57;101479.13;;;13.54
13497;BMP180;6820;49.374;8.452;2023-11-18T06:04:59;101476.09;;;13.46
13497;BMP180;6820;49.374;8.452;2023-11-18T06:09:05;101502.31;;;13.45
13497;BMP180;6820;49.374;8.452;2023-11-18T06:13:10;101499.56;;;13.42
13497;BMP180;6820;49.374;8.452;2023-11-18T06:17:14;101498.91;;;13.45
13497;BMP180;6820;49.374;8.452;2023-11-18T06:21:18;101508.59;;;13.50
13497;BMP180;6820;49.374;8.452;2023-11-18T06:25:20;101508.31;;;13.59
13497;BMP180;6820;49.374;8.452;2023-11-18T06:29:21;101501.09;;;13.65
13497;BMP180;6820;49.374;8.452;2023-11-18T06:33:25;101497.84;;;13.67
13497;BMP180;6820;49.374;8.452;2023-11-18T06:37:32;101488.84;;;13.72
13497;BMP180;6820;49.374;8.452;2023-11-18T06:41:34;101490.91;;;13.77
13497;BMP180;6820;49.374;8.452;2023-11-18T06:45:44;101492.78;;;13.80
13497;BMP180;6820;49.374;8.452;2023-11-18T06:49:46;101484.44;;;13.69
13497;BMP180;6820;49.374;8.452;2023-11-18T06:53:49;101499.84;;;13.71
13497;BMP180;6820;49.374;8.452;2023-11-18T06:57:50;101500.13;;;13.63
13497;BMP180;6820;49.374;8.452;2023-11-18T07:01:53;101504.69;;;13.55
13497;BMP180;6820;49.374;8.452;2023-11-18T07:05:56;101505.41;;;13.66
13497;BMP180;6820;49.374;8.452;2023-11-18T07:09:57;101514.72;;;13.78
13497;BMP180;6820;49.374;8.452;2023-11-18T07:13:59;101515.72;;;13.80
13497;BMP180;6820;49.374;8.452;2023-11-18T07:18:02;101515.16;;;13.84
13497;BMP180;6820;49.374;8.452;2023-11-18T07:22:04;101517.41;;;13.92
13497;BMP180;6820;49.374;8.452;2023-11-18T07:26:08;101507.63;;;13.98
13497;BMP180;6820;49.374;8.452;2023-11-18T07:30:11;101492.25;;;14.09
13497;BMP180;6820;49.374;8.452;2023-11-18T07:34:13;101492.03;;;14.06
13497;BMP180;6820;49.374;8.452;2023-11-18T07:38:15;101498.13;;;14.08
13497;BMP180;6820;49.374;8.452;2023-11-18T07:42:17;101505.41;;;14.15
13497;BMP180;6820;49.374;8.452;2023-11-18T07:46:19;101517.16;;;14.26
13497;BMP180;6820;49.374;8.452;2023-11-18T07:50:23;101512.44;;;14.32
13497;BMP180;6820;49.374;8.452;2023-11-18T07:54:25;101499.47;;;14.42
13497;BMP180;6820;49.374;8.452;2023-11-18T07:58:27;101519.47;;;14.49
13497;BMP180;6820;49.374;8.452;2023-11-18T08:02:29;101529.38;;;14.57
13497;BMP180;6820;49.374;8.452;2023-11-18T08:06:31;101528.69;;;14.60
13497;BMP180;6820;49.374;8.452;2023-11-18T08:10:35;101519.34;;;14.60
13497;BMP180;6820;49.374;8.452;2023-11-18T08:14:39;101526.63;;;14.67
13497;BMP180;6820;49.374;8.452;2023-11-18T08:18:41;101509.63;;;14.67
13497;BMP180;6820;49.374;8.452;2023-11-18T08:22:43;101501.97;;;14.67
13497;BMP180;6820;49.374;8.452;2023-11-18T08:26:48;101522.00;;;14.74
13497;BMP180;6820;49.374;8.452;2023-11-18T08:30:49;101524.47;;;14.87
13497;BMP180;6820;49.374;8.452;2023-11-18T08:34:52;101508.78;;;14.94
13497;BMP180;6820;49.374;8.452;2023-11-18T08:38:54;101510.00;;;15.00
13497;BMP180;6820;49.374;8.452;2023-11-18T08:42:57;101502.97;;;15.09
13497;BMP180;6820;49.374;8.452;2023-11-18T08:46:59;101502.34;;;15.13
13497;BMP180;6820;49.374;8.452;2023-11-18T08:51:10;101489.75;;;15.16
13497;BMP180;6820;49.374;8.452;2023-11-18T08:55:15;101482.56;;;15.23
13497;BMP180;6820;49.374;8.452;2023-11-18T08:59:22;101483.72;;;15.28
13497;BMP180;6820;49.374;8.452;2023-11-18T09:03:26;101487.41;;;15.33
13497;BMP180;6820;49.374;8.452;2023-11-18T09:07:35;101485.22;;;15.39
13497;BMP180;6820;49.374;8.452;2023-11-18T09:11:38;101488.31;;;15.48
13497;BMP180;6820;49.374;8.452;2023-11-18T09:15:42;101470.81;;;15.54
13497;BMP180;6820;49.374;8.452;2023-11-18T09:19:44;101484.53;;;15.56
13497;BMP180;6820;49.374;8.452;2023-11-18T09:23:47;101477.22;;;15.62
13497;BMP180;6820;49.374;8.452;2023-11-18T09:27:51;101482.94;;;15.72
13497;BMP180;6820;49.374;8.452;2023-11-18T09:31:53;101493.16;;;15.86
13497;BMP180;6820;49.374;8.452;2023-11-18T09:35:57;101483.19;;;15.91
13497;BMP180;6820;49.374;8.452;2023-11-18T09:40:00;101465.81;;;16.00
13497;BMP180;6820;49.374;8.452;2023-11-18T09:44:12;101489.25;;;16.07
13497;BMP180;6820;49.374;8.452;2023-11-18T09:48:17;101489.16;;;16.20
13497;BMP180;6820;49.374;8.452;2023-11-18T09:52:22;101491.91;;;16.23
13497;BMP180;6820;49.374;8.452;2023-11-18T10:00:48;101494.88;;;16.30
13497;BMP180;6820;49.374;8.452;2023-11-18T10:04:52;101488.91;;;16.30
13497;BMP180;6820;49.374;8.452;2023-11-18T10:09:02;101481.38;;;16.33
13497;BMP180;6820;49.374;8.452;2023-11-18T10:13:16;101490.66;;;16.31
13497;BMP180;6820;49.374;8.452;2023-11-18T10:17:24;101470.19;;;16.31
13497;BMP180;6820;49.374;8.452;2023-11-18T10:21:35;101465.88;;;16.30
13497;BMP180;6820;49.374;8.452;2023-11-18T10:25:48;101478.34;;;16.24
13497;BMP180;6820;49.374;8.452;2023-11-18T10:29:55;101475.78;;;16.24
13497;BMP180;6820;49.374;8.452;2023-11-18T10:33:57;101470.88;;;16.28
13497;BMP180;6820;49.374;8.452;2023-11-18T10:38:02;101474.69;;;16.35
13497;BMP180;6820;49.374;8.452;2023-11-18T10:42:06;101466.63;;;16.43
13497;BMP180;6820;49.374;8.452;2023-11-18T10:46:09;101448.63;;;16.42
13497;BMP180;6820;49.374;8.452;2023-11-18T10:50:17;101456.28;;;16.42
13497;BMP180;6820;49.374;8.452;2023-11-18T10:54:21;101453.72;;;16.42
13497;BMP180;6820;49.374;8.452;2023-11-18T10:58:22;101461.34;;;16.40
13497;BMP180;6820;49.374;8.452;2023-11-18T11:02:30;101450.22;;;16.40
13497;BMP180;6820;49.374;8.452;2023-11-18T11:06:46;101447.50;;;16.37
13497;BMP180;6820;49.374;8.452;2023-11-18T11:10:53;101440.00;;;16.40
13497;BMP180;6820;49.374;8.452;2023-11-18T11:15:08;101415.91;;;16.36
13497;BMP180;6820;49.374;8.452;2023-11-18T11:19:38;101411.59;;;16.35
13497;BMP180;6820;49.374;8.452;2023-11-18T11:24:06;101418.16;;;16.46
13497;BMP180;6820;49.374;8.452;2023-11-18T11:28:22;101405.94;;;16.56
13497;BMP180;6820;49.374;8.452;2023-11-18T11:32:28;101397.63;;;16.60
13497;BMP180;6820;49.374;8.452;2023-11-18T11:36:42;101382.09;;;16.57
13497;BMP180;6820;49.374;8.452;2023-11-18T11:40:44;101367.16;;;16.49
13497;BMP180;6820;49.374;8.452;2023-11-18T11:44:48;101358.13;;;16.55
13497;BMP180;6820;49.374;8.452;2023-11-18T11:48:51;101364.91;;;16.55
13497;BMP180;6820;49.374;8.452;2023-11-18T11:53:02;101354.75;;;16.56
13497;BMP180;6820;49.374;8.452;2023-11-18T11:57:08;101347.97;;;16.57
13497;BMP180;6820;49.374;8.452;2023-11-18T12:01:21;101344.28;;;16.52
13497;BMP180;6820;49.374;8.452;2023-11-18T12:05:26;101335.81;;;16.53
13497;BMP180;6820;49.374;8.452;2023-11-18T12:09:32;101326.06;;;16.46
13497;BMP180;6820;49.374;8.452;2023-11-18T12:13:39;101329.56;;;16.48
13497;BMP180;6820;49.374;8.452;2023-11-18T12:21:59;101326.19;;;16.49
13497;BMP180;6820;49.374;8.452;2023-11-18T12:26:37;101319.41;;;16.49
13497;BMP180;6820;49.374;8.452;2023-11-18T12:30:39;101326.94;;;16.46
13497;BMP180;6820;49.374;8.452;2023-11-18T12:34:52;101307.53;;;16.34
13497;BMP180;6820;49.374;8.452;2023-11-18T12:39:02;101309.00;;;16.31
13497;BMP180;6820;49.374;8.452;2023-11-18T12:43:15;101296.06;;;16.28
13497;BMP180;6820;49.374;8.452;2023-11-18T12:47:20;101289.19;;;16.27
13497;BMP180;6820;49.374;8.452;2023-11-18T12:51:24;101289.25;;;16.28
13497;BMP180;6820;49.374;8.452;2023-11-18T12:55:26;101277.03;;;16.23
13497;BMP180;6820;49.374;8.452;2023-11-18T12:59:30;101264.34;;;16.24
13497;BMP180;6820;49.374;8.452;2023-11-18T13:03:32;101266.03;;;16.40
13497;BMP180;6820;49.374;8.452;2023-11-18T13:07:36;101255.38;;;16.48
13497;BMP180;6820;49.374;8.452;2023-11-18T13:11:38;101239.44;;;16.53
13497;BMP180;6820;49.374;8.452;2023-11-18T13:15:44;101226.66;;;16.53
13497;BMP180;6820;49.374;8.452;2023-11-18T13:19:46;101206.59;;;16.45
13497;BMP180;6820;49.374;8.452;2023-11-18T13:23:52;101197.09;;;16.43
13497;BMP180;6820;49.374;8.452;2023-11-18T13:27:54;101185.44;;;16.32
13497;BMP180;6820;49.374;8.452;2023-11-18T13:31:56;101183.66;;;16.31
13497;BMP180;6820;49.374;8.452;2023-11-18T13:36:01;101175.78;;;16.26
13497;BMP180;6820;49.374;8.452;2023-11-18T13:40:07;101171.94;;;16.34
13497;BMP180;6820;49.374;8.452;2023-11-18T13:44:09;101154.44;;;16.26
13497;BMP180;6820;49.374;8.452;2023-11-18T13:48:11;101152.44;;;16.20
13497;BMP180;6820;49.374;8.452;2023-11-18T13:52:14;101149.38;;;16.27
13497;BMP180;6820;49.374;8.452;2023-11-18T13:56:18;101155.69;;;16.34
13497;BMP180;6820;49.374;8.452;2023-11-18T14:00:22;101155.03;;;16.38
13497;BMP180;6820;49.374;8.452;2023-11-18T14:04:28;101153.13;;;16.34
13497;BMP180;6820;49.374;8.452;2023-11-18T14:08:30;101163.69;;;16.40
13497;BMP180;6820;49.374;8.452;2023-11-18T14:12:32;101163.34;;;16.34
13497;BMP180;6820;49.374;8.452;2023-11-18T14:16:34;101173.28;;;16.28
13497;BMP180;6820;49.374;8.452;2023-11-18T14:20:36;101145.97;;;16.27
13497;BMP180;6820;49.374;8.452;2023-11-18T14:24:44;101142.38;;;16.23
13497;BMP180;6820;49.374;8.452;2023-11-18T14:28:46;101131.91;;;16.19
13497;BMP180;6820;49.374;8.452;2023-11-18T14:32:48;101132.72;;;16.18
13497;BMP180;6820;49.374;8.452;2023-11-18T14:36:49;101148.84;;;16.17
13497;BMP180;6820;49.374;8.452;2023-11-18T14:40:51;101159.81;;;16.15
13497;BMP180;6820;49.374;8.452;2023-11-18T14:44:54;101180.94;;;16.12
13497;BMP180;6820;49.374;8.452;2023-11-18T14:48:57;101170.66;;;16.11
13497;BMP180;6820;49.374;8.452;2023-11-18T14:52:59;101148.94;;;16.03
13497;BMP180;6820;49.374;8.452;2023-11-18T14:57:03;101161.59;;;16.16
13497;BMP180;6820;49.374;8.452;2023-11-18T15:01:05;101160.09;;;16.20
13497;BMP180;6820;49.374;8.452;2023-11-18T15:05:08;101143.81;;;16.18
13497;BMP180;6820;49.374;8.452;2023-11-18T15:09:11;101137.84;;;16.18
13497;BMP180;6820;49.374;8.452;2023-11-18T15:13:13;101143.59;;;16.14
13497;BMP180;6820;49.374;8.452;2023-11-18T15:17:17;101129.81;;;16.12
13497;BMP180;6820;49.374;8.452;2023-11-18T15:21:18;101120.09;;;16.05
13497;BMP180;6820;49.374;8.452;2023-11-18T15:25:20;101099.47;;;16.02
13497;BMP180;6820;49.374;8.452;2023-11-18T15:29:22;101092.03;;;15.91
13497;BMP180;6820;49.374;8.452;2023-11-18T15:33:29;101097.25;;;15.92
13497;BMP180;6820;49.374;8.452;2023-11-18T15:37:33;101082.53;;;15.88
13497;BMP180;6820;49.374;8.452;2023-11-18T15:41:34;101079.78;;;15.84
13497;BMP180;6820;49.374;8.452;2023-11-18T15:45:37;101074.28;;;15.77
13497;BMP180;6820;49.374;8.452;2023-11-18T15:49:41;101062.78;;;15.69
13497;BMP180;6820;49.374;8.452;2023-11-18T15:53:46;101059.09;;;15.64
13497;BMP180;6820;49.374;8.452;2023-11-18T15:57:49;101048.09;;;15.65
13497;BMP180;6820;49.374;8.452;2023-11-18T16:01:54;101045.56;;;15.65
13497;BMP180;6820;49.374;8.452;2023-11-18T16:05:56;101031.63;;;15.76
13497;BMP180;6820;49.374;8.452;2023-11-18T16:09:57;101018.88;;;15.76
13497;BMP180;6820;49.374;8.452;2023-11-18T16:14:04;101029.94;;;15.76
13497;BMP180;6820;49.374;8.452;2023-11-18T16:18:06;101037.91;;;15.82
13497;BMP180;6820;49.374;8.452;2023-11-18T16:22:08;101046.03;;;15.91
13497;BMP180;6820;49.374;8.452;2023-11-18T16:26:10;101029.09;;;15.93
13497;BMP180;6820;49.374;8.452;2023-11-18T16:30:15;101014.50;;;15.90
13497;BMP180;6820;49.374;8.452;2023-11-18T16:34:20;101006.22;;;15.79
13497;BMP180;6820;49.374;8.452;2023-11-18T16:38:23;100984.59;;;15.72
13497;BMP180;6820;49.374;8.452;2023-11-18T16:42:25;100966.09;;;15.60
13497;BMP180;6820;49.374;8.452;2023-11-18T16:46:29;100965.09;;;15.57
13497;BMP180;6820;49.374;8.452;2023-11-18T16:50:31;100956.59;;;15.58
13497;BMP180;6820;49.374;8.452;2023-11-18T16:54:33;100943.84;;;15.58
13497;BMP180;6820;49.374;8.452;2023-11-18T16:58:41;100931.50;;;15.50
13497;BMP180;6820;49.374;8.452;2023-11-18T17:02:48;100936.44;;;15.47
13497;BMP180;6820;49.374;8.452;2023-11-18T17:06:55;100945.84;;;15.48
13497;BMP180;6820;49.374;8.452;2023-11-18T17:10:59;100938.47;;;15.53
13497;BMP180;6820;49.374;8.452;2023-11-18T17:15:08;100921.50;;;15.54
13497;BMP180;6820;49.374;8.452;2023-11-18T17:19:14;100925.09;;;15.57
13497;BMP180;6820;49.374;8.452;2023-11-18T17:23:16;100955.00;;;15.60
13497;BMP180;6820;49.374;8.452;2023-11-18T17:27:18;100928.06;;;15.66
13497;BMP180;6820;49.374;8.452;2023-11-18T17:31:20;100930.63;;;15.66
13497;BMP180;6820;49.374;8.452;2023-11-18T17:35:22;100933.63;;;15.58
13497;BMP180;6820;49.374;8.452;2023-11-18T17:39:24;100932.22;;;15.64
13497;BMP180;6820;49.374;8.452;2023-11-18T17:43:25;100919.53;;;15.66
13497;BMP180;6820;49.374;8.452;2023-11-18T17:47:28;100916.84;;;15.63
13497;BMP180;6820;49.374;8.452;2023-11-18T17:51:30;100896.97;;;15.57
13497;BMP180;6820;49.374;8.452;2023-11-18T17:55:33;100860.97;;;15.53
13497;BMP180;6820;49.374;8.452;2023-11-18T17:59:34;100837.22;;;15.54
13497;BMP180;6820;49.374;8.452;2023-11-18T18:03:36;100843.78;;;15.49
13497;BMP180;6820;49.374;8.452;2023-11-18T18:07:38;100838.81;;;15.52
13497;BMP180;6820;49.374;8.452;2023-11-18T18:11:40;100820.97;;;15.53
13497;BMP180;6820;49.374;8.452;2023-11-18T18:15:42;100819.09;;;15.50
13497;BMP180;6820;49.374;8.452;2023-11-18T18:19:43;100807.50;;;15.39
13497;BMP180;6820;49.374;8.452;2023-11-18T18:23:45;100806.69;;;15.40
13497;BMP180;6820;49.374;8.452;2023-11-18T18:27:46;100809.03;;;15.35
13497;BMP180;6820;49.374;8.452;2023-11-18T18:31:51;100806.53;;;15.37
13497;BMP180;6820;49.374;8.452;2023-11-18T18:35:53;100816.03;;;15.39
13497;BMP180;6820;49.374;8.452;2023-11-18T18:39:55;100798.97;;;15.38
13497;BMP180;6820;49.374;8.452;2023-11-18T18:43:58;100778.88;;;15.46
13497;BMP180;6820;49.374;8.452;2023-11-18T18:48:02;100772.09;;;15.46
13497;BMP180;6820;49.374;8.452;2023-11-18T18:52:04;100774.72;;;15.48
13497;BMP180;6820;49.374;8.452;2023-11-18T18:56:07;100750.03;;;15.48
13497;BMP180;6820;49.374;8.452;2023-11-18T19:00:11;100739.31;;;15.55
13497;BMP180;6820;49.374;8.452;2023-11-18T19:04:13;100737.25;;;15.65
13497;BMP180;6820;49.374;8.452;2023-11-18T19:08:15;100744.06;;;15.65
13497;BMP180;6820;49.374;8.452;2023-11-18T19:12:17;100739.22;;;15.71
13497;BMP180;6820;49.374;8.452;2023-11-18T19:16:19;100713.59;;;15.69
13497;BMP180;6820;49.374;8.452;2023-11-18T19:20:20;100711.91;;;15.70
13497;BMP180;6820;49.374;8.452;2023-11-18T19:24:23;100699.13;;;15.70
13497;BMP180;6820;49.374;8.452;2023-11-18T19:28:28;100698.41;;;15.72
13497;BMP180;6820;49.374;8.452;2023-11-18T19:32:33;100713.06;;;15.76
13497;BMP180;6820;49.374;8.452;2023-11-18T19:36:34;100749.63;;;15.75
13497;BMP180;6820;49.374;8.452;2023-11-18T19:40:36;100729.41;;;15.80
13497;BMP180;6820;49.374;8.452;2023-11-18T19:44:38;100732.66;;;15.76
13497;BMP180;6820;49.374;8.452;2023-11-18T19:48:40;100703.13;;;15.82
13497;BMP180;6820;49.374;8.452;2023-11-18T19:52:41;100708.31;;;15.84
13497;BMP180;6820;49.374;8.452;2023-11-18T19:56:43;100711.75;;;15.84
13497;BMP180;6820;49.374;8.452;2023-11-18T20:00:45;100684.56;;;15.86
13497;BMP180;6820;49.374;8.452;2023-11-18T20:04:46;100693.16;;;15.88
13497;BMP180;6820;49.374;8.452;2023-11-18T20:08:48;100702.47;;;15.86
13497;BMP180;6820;49.374;8.452;2023-11-18T20:12:50;100712.75;;;15.87
13497;BMP180;6820;49.374;8.452;2023-11-18T20:16:52;100694.94;;;15.89
13497;BMP180;6820;49.374;8.452;2023-11-18T20:20:55;100695.81;;;15.89
13497;BMP180;6820;49.374;8.452;2023-11-18T20:24:58;100695.84;;;15.91
13497;BMP180;6820;49.374;8.452;2023-11-18T20:29:01;100698.84;;;16.00
13497;BMP180;6820;49.374;8.452;2023-11-18T20:33:02;100680.94;;;16.00
13497;BMP180;6820;49.374;8.452;2023-11-18T20:37:04;100691.63;;;15.91
13497;BMP180;6820;49.374;8.452;2023-11-18T20:41:09;100690.56;;;15.86
13497;BMP180;6820;49.374;8.452;2023-11-18T20:45:15;100689.75;;;15.87
13497;BMP180;6820;49.374;8.452;2023-11-18T20:49:20;100704.25;;;15.88
13497;BMP180;6820;49.374;8.452;2023-11-18T20:53:22;100687.78;;;15.82
13497;BMP180;6820;49.374;8.452;2023-11-18T20:57:23;100719.53;;;15.87
13497;BMP180;6820;49.374;8.452;2023-11-18T21:01:25;100704.34;;;15.90
13497;BMP180;6820;49.374;8.452;2023-11-18T21:05:27;100678.69;;;15.88
13497;BMP180;6820;49.374;8.452;2023-11-18T21:09:28;100668.44;;;15.87
13497;BMP180;6820;49.374;8.452;2023-11-18T21:13:30;100674.63;;;15.92
13497;BMP180;6820;49.374;8.452;2023-11-18T21:17:33;100670.84;;;16.03
13497;BMP180;6820;49.374;8.452;2023-11-18T21:21:35;100664.66;;;15.98
13497;BMP180;6820;49.374;8.452;2023-11-18T21:25:37;100659.41;;;15.95
13497;BMP180;6820;49.374;8.452;2023-11-18T21:29:39;100643.94;;;15.92
13497;BMP180;6820;49.374;8.452;2023-11-18T21:33:40;100637.97;;;15.91
13497;BMP180;6820;49.374;8.452;2023-11-18T21:37:42;100623.53;;;15.93
13497;BMP180;6820;49.374;8.452;2023-11-18T21:41:44;100614.66;;;16.04
13497;BMP180;6820;49.374;8.452;2023-11-18T21:45:45;100596.72;;;16.03
13497;BMP180;6820;49.374;8.452;2023-11-18T21:49:47;100609.41;;;16.01
13497;BMP180;6820;49.374;8.452;2023-11-18T21:53:53;100603.75;;;16.08
13497;BMP180;6820;49.374;8.452;2023-11-18T21:57:54;100603.56;;;16.04
13497;BMP180;6820;49.374;8.452;2023-11-18T22:01:56;100589.28;;;16.09
13497;BMP180;6820;49.374;8.452;2023-11-18T22:05:58;100588.47;;;16.10
13497;BMP180;6820;49.374;8.452;2023-11-18T22:10:00;100585.88;;;16.08
13497;BMP180;6820;49.374;8.452;2023-11-18T22:14:04;100577.25;;;16.06
13497;BMP180;6820;49.374;8.452;2023-11-18T22:18:07;100563.41;;;16.01
13497;BMP180;6820;49.374;8.452;2023-11-18T22:22:12;100567.31;;;15.93
13497;BMP180;6820;49.374;8.452;2023-11-18T22:26:13;100568.22;;;15.94
13497;BMP180;6820;49.374;8.452;2023-11-18T22:30:15;100556.44;;;15.97
13497;BMP180;6820;49.374;8.452;2023-11-18T22:34:18;100536.03;;;15.99
13497;BMP180;6820;49.374;8.452;2023-11-18T22:38:21;100536.34;;;16.06
13497;BMP180;6820;49.374;8.452;2023-11-18T22:42:25;100543.19;;;16.07
13497;BMP180;6820;49.374;8.452;2023-11-18T22:46:27;100547.44;;;16.07
13497;BMP180;6820;49.374;8.452;2023-11-18T22:50:29;100536.44;;;16.08
13497;BMP180;6820;49.374;8.452;2023-11-18T22:54:30;100506.38;;;16.02
13497;BMP180;6820;49.374;8.452;2023-11-18T22:58:32;100508.03;;;16.02
13497;BMP180;6820;49.374;8.452;2023-11-18T23:02:34;100503.88;;;16.04
13497;BMP180;6820;49.374;8.452;2023-11-18T23:06:35;100493.59;;;16.02
13497;BMP180;6820;49.374;8.452;2023-11-18T23:10:38;100496.16;;;16.02
13497;BMP180;6820;49.374;8.452;2023-11-18T23:14:40;100498.81;;;16.05
13497;BMP180;6820;49.374;8.452;2023-11-18T23:18:42;100511.97;;;16.13
13497;BMP180;6820;49.374;8.452;2023-11-18T23:22:45;100516.56;;;16.21
13497;BMP180;6820;49.374;8.452;2023-11-18T23:26:46;100511.34;;;16.18
13497;BMP180;6820;49.374;8.452;2023-11-18T23:30:48;100513.47;;;16.09